Milouin — FT9009 — position and weather

sailwx.info

Track history (hours):
 
Tides and Currents Weather Stations Pressure Air Temp Water Temp Dewpoint Dewpoint Depression Visibility Wind Speed Wind Dir Waves Ship Positions

Milouin

Last reported at 2014-Jul-18 08:33 UTC. Time now 2014-Jul-22 13:30 UTC.
Position N 47°18' W 002°06'.

Length 36 m; draft 2.5 m.

Type: Ship. MMSI: 227003190.

Date/timePositionNaut miles runAvg speedWind from/ knotsBaromVisibWave heightAir tempDewpointWater temp
2014-Jul-18 08:33N 47°18' W 002°06'0 0.2
2014-Jul-18 07:20N 47°18' W 002°06'3 4.2
2014-Jul-18 06:31N 47°17' W 002°01'0 0.0
2014-Jul-18 01:21N 47°17' W 002°01'0 0.0
2014-Jul-18 00:33N 47°17' W 002°01'0 0.0
2014-Jul-17 23:23N 47°17' W 002°01'0 0.0
2014-Jul-17 22:28N 47°17' W 002°01'0 0.0
2014-Jul-17 21:34N 47°17' W 002°01'7 0.5
2014-Jul-17 07:08N 47°16' W 002°12'4 6.3
2014-Jul-17 06:32N 47°18' W 002°07'4 4.2
2014-Jul-17 05:34N 47°17' W 002°01'0 0.0
2014-Jul-15 23:08N 47°17' W 002°01'8 0.5
2014-Jul-15 07:31N 47°16' W 002°12'  
Track history (hours):
 
Tides and Currents Weather Stations Pressure Air Temp Water Temp Dewpoint Dewpoint Depression Visibility Wind Speed Wind Dir Waves Ship Positions

Milouin

Last reported at 2014-Jul-18 08:33 UTC. Time now 2014-Jul-22 13:30 UTC.
Position N 47°18' W 002°06'.

Length 36 m; draft 2.5 m.

Type: Ship. MMSI: 227003190.

Date/timePositionNaut miles runAvg speedWind from/ knotsBaromVisibWave heightAir tempDewpointWater temp
2014-Jul-18 08:33N 47°18' W 002°06'0 0.2
2014-Jul-18 07:20N 47°18' W 002°06'3 4.2
2014-Jul-18 06:31N 47°17' W 002°01'0 0.0
2014-Jul-18 01:21N 47°17' W 002°01'0 0.0
2014-Jul-18 00:33N 47°17' W 002°01'0 0.0
2014-Jul-17 23:23N 47°17' W 002°01'0 0.0
2014-Jul-17 22:28N 47°17' W 002°01'0 0.0
2014-Jul-17 21:34N 47°17' W 002°01'7 0.5
2014-Jul-17 07:08N 47°16' W 002°12'4 6.3
2014-Jul-17 06:32N 47°18' W 002°07'4 4.2
2014-Jul-17 05:34N 47°17' W 002°01'0 0.0
2014-Jul-15 23:08N 47°17' W 002°01'8 0.5
2014-Jul-15 07:31N 47°16' W 002°12'  

Dump ship's entire track history